createdAt,value
2018-11-06T00:00:16.925Z,14.93
2018-11-06T00:02:47.422Z,15.88
2018-11-06T00:05:18.121Z,13.10
2018-11-06T00:07:47.346Z,15.45
2018-11-06T00:10:16.562Z,58.05
2018-11-06T00:12:45.798Z,28.42
2018-11-06T00:15:15.010Z,31.57
2018-11-06T00:17:44.289Z,20.75
2018-11-06T00:20:14.547Z,17.20
2018-11-06T00:22:43.803Z,16.05
2018-11-06T00:25:13.902Z,11.33
2018-11-06T00:27:43.132Z,15.18
2018-11-06T00:30:13.560Z,11.63
2018-11-06T00:32:43.325Z,10.88
2018-11-06T00:35:13.911Z,11.55
2018-11-06T00:37:43.994Z,10.85
2018-11-06T00:40:13.554Z,11.20
2018-11-06T00:42:42.807Z,9.08
2018-11-06T00:45:13.548Z,11.78
2018-11-06T00:47:42.764Z,8.78
2018-11-06T00:50:12.978Z,8.70
2018-11-06T00:52:43.158Z,15.72
2018-11-06T00:55:12.587Z,10.72
2018-11-06T00:57:43.724Z,9.08
2018-11-06T01:00:15.154Z,11.10
2018-11-06T01:02:44.587Z,10.75
2018-11-06T01:05:14.682Z,7.58
2018-11-06T01:07:44.824Z,9.23
2018-11-06T01:10:14.114Z,7.90
2018-11-06T01:12:43.331Z,9.15
2018-11-06T01:15:13.892Z,9.68
2018-11-06T01:17:44.086Z,8.88
2018-11-06T01:20:15.309Z,9.20
2018-11-06T01:22:44.914Z,9.18
2018-11-06T01:25:14.508Z,13.20
2018-11-06T01:27:43.838Z,12.07
2018-11-06T01:30:17.758Z,10.90
2018-11-06T01:32:47.438Z,9.50
2018-11-06T01:35:17.247Z,9.60
2018-11-06T01:37:47.078Z,9.45
2018-11-06T01:40:17.498Z,8.85
2018-11-06T01:42:47.417Z,9.58
2018-11-06T01:45:17.421Z,13.60
2018-11-06T01:47:46.650Z,9.95
2018-11-06T01:50:17.097Z,11.03
2018-11-06T01:52:47.219Z,9.15
2018-11-06T01:55:16.463Z,9.45
2018-11-06T01:57:45.675Z,7.83
2018-11-06T02:00:16.746Z,8.48
2018-11-06T02:02:46.130Z,9.75
2018-11-06T02:05:16.769Z,9.40
2018-11-06T02:07:47.289Z,8.70
2018-11-06T02:10:17.018Z,8.63
2018-11-06T02:12:47.008Z,11.70
2018-11-06T02:15:16.250Z,13.43
2018-11-06T02:17:46.029Z,8.70
2018-11-06T02:20:15.868Z,9.40
2018-11-06T02:22:45.755Z,9.33
2018-11-06T02:25:15.410Z,9.80
2018-11-06T02:27:44.610Z,9.08
2018-11-06T02:30:15.522Z,9.15
2018-11-06T02:32:45.536Z,7.50
2018-11-06T02:35:14.787Z,7.90
2018-11-06T02:37:44.046Z,7.65
2018-11-06T02:40:14.453Z,10.03
2018-11-06T02:42:43.980Z,8.30
2018-11-06T02:45:13.883Z,12.05
2018-11-06T02:47:43.610Z,11.00
2018-11-06T02:50:13.710Z,11.00
2018-11-06T02:52:43.560Z,13.10
2018-11-06T02:55:13.062Z,9.98
2018-11-06T02:57:42.968Z,9.38
2018-11-06T03:00:14.512Z,9.20
2018-11-06T03:02:44.542Z,12.85
2018-11-06T03:05:13.841Z,9.35
2018-11-06T03:07:43.046Z,13.62
2018-11-06T03:10:13.345Z,11.50
2018-11-06T03:12:43.283Z,8.83
2018-11-06T03:15:13.602Z,9.23
2018-11-06T03:17:42.830Z,9.68
2018-11-06T03:20:12.731Z,7.80
2018-11-06T03:22:42.639Z,9.45
2018-11-06T03:25:12.264Z,11.35
2018-11-06T03:27:41.762Z,11.50
2018-11-06T03:30:14.334Z,8.78
2018-11-06T03:32:43.776Z,9.18
2018-11-06T03:35:13.963Z,9.33
2018-11-06T03:37:43.158Z,9.80
2018-11-06T03:40:12.976Z,9.25
2018-11-06T03:42:43.021Z,8.90
2018-11-06T03:45:13.242Z,8.10
2018-11-06T03:47:42.443Z,9.40
2018-11-06T03:50:12.818Z,8.38
2018-11-06T03:52:42.039Z,10.10
2018-11-06T03:55:11.243Z,9.73
2018-11-06T03:57:40.499Z,8.60
2018-11-06T04:00:13.190Z,8.00
2018-11-06T04:02:42.945Z,10.45
2018-11-06T04:05:12.663Z,12.60
2018-11-06T04:07:41.863Z,8.38
2018-11-06T04:10:11.958Z,10.30
2018-11-06T04:12:41.905Z,10.55
2018-11-06T04:15:12.706Z,8.65
2018-11-06T04:17:42.958Z,12.43
2018-11-06T04:20:12.446Z,12.80
2018-11-06T04:22:42.492Z,14.87
2018-11-06T04:25:11.738Z,20.50
2018-11-06T04:27:40.979Z,15.10
2018-11-06T04:30:12.330Z,15.25
2018-11-06T04:32:42.426Z,14.10
2018-11-06T04:35:12.578Z,15.08
2018-11-06T04:37:42.191Z,14.53
2018-11-06T04:40:13.218Z,16.55
2018-11-06T04:42:42.454Z,10.53
2018-11-06T04:45:12.538Z,11.03
2018-11-06T04:47:42.040Z,9.03
2018-11-06T04:50:11.630Z,11.83
2018-11-06T04:52:41.481Z,11.73
2018-11-06T04:55:11.995Z,12.45
2018-11-06T04:57:41.707Z,8.75
2018-11-06T05:00:12.862Z,9.90
2018-11-06T05:02:42.486Z,8.75
2018-11-06T05:05:12.162Z,6.60
2018-11-06T05:07:41.501Z,10.78
2018-11-06T05:10:13.127Z,10.88
2018-11-06T05:12:42.462Z,11.10
2018-11-06T05:15:13.766Z,10.45
2018-11-06T05:17:43.419Z,8.43
2018-11-06T05:20:15.760Z,15.90
2018-11-06T05:22:45.777Z,22.77
2018-11-06T05:25:15.597Z,29.82
2018-11-06T05:27:44.788Z,12.40
2018-11-06T05:30:14.087Z,14.40
2018-11-06T05:32:44.292Z,16.25
2018-11-06T05:35:13.854Z,14.40
2018-11-06T05:37:43.085Z,13.78
2018-11-06T05:40:23.738Z,13.48
2018-11-06T05:42:52.998Z,11.40
2018-11-06T05:45:22.382Z,11.50
2018-11-06T05:47:51.554Z,11.75
2018-11-06T05:50:20.781Z,9.55
2018-11-06T05:52:50.006Z,10.78
2018-11-06T05:55:19.240Z,9.65
2018-11-06T05:57:48.450Z,11.20
2018-11-06T06:00:18.346Z,9.33
2018-11-06T06:02:47.560Z,8.13
2018-11-06T06:05:16.907Z,13.40
2018-11-06T06:07:46.174Z,13.10
2018-11-06T06:10:15.362Z,11.83
2018-11-06T06:12:44.670Z,10.98
2018-11-06T06:15:13.878Z,15.13
2018-11-06T06:17:43.078Z,11.48
2018-11-06T06:20:12.334Z,11.88
2018-11-06T06:22:41.595Z,12.68
2018-11-06T06:25:10.770Z,10.80
2018-11-06T06:27:39.995Z,10.13
2018-11-06T06:30:11.926Z,12.35
2018-11-06T06:32:41.383Z,11.85
2018-11-06T06:35:10.726Z,10.90
2018-11-06T06:37:39.957Z,11.73
2018-11-06T06:40:11.691Z,10.80
2018-11-06T06:42:41.363Z,11.53
2018-11-06T06:45:12.502Z,15.68
2018-11-06T06:47:41.817Z,15.53
2018-11-06T06:50:12.961Z,15.65
2018-11-06T06:52:42.682Z,12.60
2018-11-06T06:55:13.069Z,12.53
2018-11-06T06:57:43.413Z,14.18
2018-11-06T07:00:14.901Z,17.65
2018-11-06T07:02:44.156Z,14.98
2018-11-06T07:05:14.854Z,13.72
2018-11-06T07:07:44.546Z,13.38
2018-11-06T07:10:15.792Z,13.05
2018-11-06T07:12:45.797Z,17.20
2018-11-06T07:15:16.323Z,11.63
2018-11-06T07:17:46.451Z,13.10
2018-11-06T07:20:16.967Z,12.90
2018-11-06T07:22:46.314Z,17.87
2018-11-06T07:25:15.874Z,15.40
2018-11-06T07:27:46.322Z,15.50
2018-11-06T07:30:17.185Z,13.90
2018-11-06T07:32:46.854Z,12.10
2018-11-06T07:35:16.943Z,11.63
2018-11-06T07:37:46.491Z,9.75
2018-11-06T07:40:18.228Z,16.57
2018-11-06T07:42:47.460Z,13.38
2018-11-06T07:45:18.186Z,10.60
2018-11-06T07:47:47.483Z,11.70
2018-11-06T07:50:16.818Z,9.70
2018-11-06T07:52:46.306Z,9.98
2018-11-06T07:55:16.913Z,11.90
2018-11-06T07:57:46.229Z,8.33
2018-11-06T08:00:18.834Z,9.00
2018-11-06T08:02:48.800Z,8.80
2018-11-06T08:05:18.538Z,6.90
2018-11-06T08:07:48.686Z,10.73
2018-11-06T08:10:18.004Z,11.20
2018-11-06T08:12:48.734Z,10.17
2018-11-06T08:15:18.083Z,9.67
2018-11-06T08:17:47.514Z,14.18
2018-11-06T08:20:17.016Z,9.53
2018-11-06T08:22:46.410Z,9.48
2018-11-06T08:25:16.535Z,10.70
2018-11-06T08:27:46.440Z,9.20
2018-11-06T08:30:15.605Z,8.67
2018-11-06T08:32:45.199Z,9.37
2018-11-06T08:35:15.477Z,9.20
2018-11-06T08:37:44.798Z,9.13
2018-11-06T08:40:15.424Z,10.32
2018-11-06T08:42:44.699Z,8.77
2018-11-06T08:45:15.062Z,9.27
2018-11-06T08:47:44.966Z,11.53
2018-11-06T08:50:15.792Z,9.40
2018-11-06T08:52:45.087Z,9.33
2018-11-06T08:55:15.042Z,10.40
2018-11-06T08:57:44.849Z,13.87
2018-11-06T09:00:16.901Z,12.73
2018-11-06T09:02:47.300Z,13.70
2018-11-06T09:05:17.325Z,11.83
2018-11-06T09:07:46.563Z,11.20
2018-11-06T09:10:16.452Z,8.40
2018-11-06T09:12:45.678Z,9.77
2018-11-06T09:15:15.884Z,8.97
2018-11-06T09:17:45.381Z,12.37
2018-11-06T09:20:15.724Z,15.33
2018-11-06T09:22:45.189Z,10.77
2018-11-06T09:25:15.942Z,11.10
2018-11-06T09:27:45.462Z,12.20
2018-11-06T09:30:16.107Z,11.00
2018-11-06T09:32:45.594Z,9.07
2018-11-06T09:35:15.440Z,10.23
2018-11-06T09:37:44.919Z,9.77
2018-11-06T09:40:17.623Z,11.20
2018-11-06T09:42:47.434Z,11.47
2018-11-06T09:45:17.061Z,16.10
2018-11-06T09:47:46.266Z,10.63
2018-11-06T09:50:17.062Z,11.60
2018-11-06T09:52:46.959Z,11.20
2018-11-06T09:55:17.011Z,13.10
2018-11-06T09:57:46.913Z,9.07
2018-11-06T10:00:17.496Z,9.93
2018-11-06T10:02:46.673Z,9.73
2018-11-06T10:05:16.253Z,10.27
2018-11-06T10:07:45.552Z,11.20
2018-11-06T10:10:16.486Z,9.67
2018-11-06T10:12:46.220Z,8.57
2018-11-06T10:15:17.238Z,10.47
2018-11-06T10:17:47.654Z,8.47
2018-11-06T10:20:17.925Z,10.10
2018-11-06T10:22:47.170Z,11.30
2018-11-06T10:25:16.423Z,7.37
2018-11-06T10:27:45.666Z,6.87
2018-11-06T10:30:17.774Z,7.93
2018-11-06T10:32:47.049Z,5.87
2018-11-06T10:35:16.354Z,6.20
2018-11-06T10:37:45.581Z,5.27
2018-11-06T10:40:19.690Z,5.10
2018-11-06T10:42:49.218Z,3.90
2018-11-06T10:45:19.137Z,3.20
2018-11-06T10:47:48.840Z,2.37
2018-11-06T10:50:18.637Z,3.73
2018-11-06T10:52:48.642Z,3.13
2018-11-06T10:55:17.889Z,3.13
2018-11-06T10:57:47.212Z,2.20
2018-11-06T11:00:21.842Z,2.30
2018-11-06T11:02:56.534Z,2.90
2018-11-06T11:05:27.560Z,3.03
2018-11-06T11:07:56.871Z,5.00
2018-11-06T11:10:26.351Z,3.00
2018-11-06T11:12:55.586Z,2.97
2018-11-06T11:15:25.054Z,2.90
2018-11-06T11:17:54.259Z,5.20
2018-11-06T11:20:23.626Z,3.67
2018-11-06T11:22:52.810Z,5.00
2018-11-06T11:25:22.128Z,4.30
2018-11-06T11:27:51.482Z,4.17
2018-11-06T11:30:20.865Z,4.10
2018-11-06T11:32:50.159Z,6.20
2018-11-06T11:35:19.379Z,3.50
2018-11-06T11:37:48.784Z,5.60
2018-11-06T11:40:18.070Z,3.77
2018-11-06T11:42:47.303Z,3.30
2018-11-06T11:45:16.810Z,3.07
2018-11-06T11:47:46.039Z,3.27
2018-11-06T11:50:16.141Z,3.67
2018-11-06T11:52:45.388Z,4.27
2018-11-06T11:55:14.652Z,3.30
2018-11-06T11:57:43.885Z,2.67
2018-11-06T12:00:14.739Z,3.07
2018-11-06T12:02:43.932Z,6.00
2018-11-06T12:05:13.170Z,3.30
2018-11-06T12:07:42.372Z,3.50
2018-11-06T12:10:12.387Z,3.80
2018-11-06T12:12:41.874Z,3.10
2018-11-06T12:15:13.655Z,3.17
2018-11-06T12:17:43.883Z,3.80
2018-11-06T12:20:13.827Z,2.40
2018-11-06T12:22:43.093Z,3.00
2018-11-06T12:25:12.728Z,3.03
2018-11-06T12:27:42.108Z,2.90
2018-11-06T12:30:13.444Z,2.80
2018-11-06T12:32:42.836Z,2.43
2018-11-06T12:35:12.862Z,2.80
2018-11-06T12:37:42.157Z,2.30
2018-11-06T12:40:12.534Z,3.17
2018-11-06T12:42:42.227Z,2.53
2018-11-06T12:45:15.943Z,2.70
2018-11-06T12:47:45.830Z,2.90
2018-11-06T12:50:15.115Z,2.43
2018-11-06T12:52:44.332Z,3.03
2018-11-06T12:55:14.786Z,3.63
2018-11-06T12:57:44.050Z,1.70
2018-11-06T13:00:15.027Z,3.30
2018-11-06T13:02:44.290Z,3.70
2018-11-06T13:05:13.532Z,2.93
2018-11-06T13:07:43.557Z,2.47
2018-11-06T13:10:13.462Z,1.90
2018-11-06T13:12:43.136Z,4.17
2018-11-06T13:15:12.798Z,1.80
2018-11-06T13:17:42.023Z,1.80
2018-11-06T13:20:12.927Z,1.90
2018-11-06T13:22:42.926Z,2.20
2018-11-06T13:25:12.236Z,2.70
2018-11-06T13:27:42.145Z,2.50
2018-11-06T13:30:14.962Z,2.60
2018-11-06T13:32:45.173Z,2.77
2018-11-06T13:35:14.601Z,2.67
2018-11-06T13:37:43.865Z,2.63
2018-11-06T13:40:14.392Z,3.80
2018-11-06T13:42:43.927Z,3.20
2018-11-06T13:45:17.749Z,4.40
2018-11-06T13:47:46.890Z,2.40
2018-11-06T13:50:16.152Z,2.40
2018-11-06T13:52:45.362Z,2.50
2018-11-06T13:55:15.536Z,2.33
2018-11-06T13:57:45.560Z,2.73
2018-11-06T14:00:16.943Z,2.40
2018-11-06T14:02:46.303Z,2.60
2018-11-06T14:05:15.799Z,2.27
2018-11-06T14:07:45.328Z,2.50
2018-11-06T14:10:14.574Z,4.00
2018-11-06T14:12:44.646Z,3.30
2018-11-06T14:15:13.926Z,2.70
2018-11-06T14:17:43.194Z,3.20
2018-11-06T14:20:14.582Z,6.43
2018-11-06T14:22:44.230Z,4.17
2018-11-06T14:25:13.466Z,2.30
2018-11-06T14:27:42.933Z,3.17
2018-11-06T14:30:14.396Z,4.87
2018-11-06T14:32:43.739Z,3.37
2018-11-06T14:35:13.994Z,3.53
2018-11-06T14:37:43.882Z,4.07
2018-11-06T14:40:13.927Z,2.93
2018-11-06T14:42:43.902Z,5.90
2018-11-06T14:45:14.589Z,3.20
2018-11-06T14:47:43.900Z,3.00
2018-11-06T14:50:13.394Z,3.27
2018-11-06T14:52:42.683Z,3.20
2018-11-06T14:55:13.322Z,3.40
2018-11-06T14:57:42.606Z,5.07
2018-11-06T15:00:16.864Z,4.53
2018-11-06T15:02:48.173Z,3.50
2018-11-06T15:05:18.233Z,3.67
2018-11-06T15:07:47.736Z,3.37
2018-11-06T15:10:17.224Z,3.10
2018-11-06T15:12:46.796Z,4.23
2018-11-06T15:15:16.519Z,4.57
2018-11-06T15:17:46.641Z,4.00
2018-11-06T15:20:19.330Z,3.20
2018-11-06T15:22:48.575Z,4.07
2018-11-06T15:25:18.449Z,3.43
2018-11-06T15:27:47.675Z,4.50
2018-11-06T15:30:17.965Z,4.33
2018-11-06T15:32:47.316Z,6.60
2018-11-06T15:35:18.035Z,5.47
2018-11-06T15:37:47.291Z,5.30
2018-11-06T15:40:17.852Z,4.90
2018-11-06T15:42:47.099Z,5.33
2018-11-06T15:45:17.708Z,6.47
2018-11-06T15:47:47.423Z,5.80
2018-11-06T15:50:17.905Z,6.03
2018-11-06T15:52:48.146Z,7.47
2018-11-06T15:55:17.438Z,14.67
2018-11-06T15:57:46.665Z,9.50
2018-11-06T16:00:19.293Z,10.37
2018-11-06T16:02:48.922Z,9.10
2018-11-06T16:05:18.197Z,10.83
2018-11-06T16:07:47.774Z,9.10
2018-11-06T16:10:18.408Z,7.40
2018-11-06T16:12:47.659Z,8.50
2018-11-06T16:15:16.961Z,12.03
2018-11-06T16:17:46.243Z,11.47
2018-11-06T16:20:18.655Z,9.63
2018-11-06T16:22:48.154Z,10.17
2018-11-06T16:25:18.356Z,8.70
2018-11-06T16:27:47.981Z,9.53
2018-11-06T16:30:18.626Z,8.30
2018-11-06T16:32:47.899Z,9.00
2018-11-06T16:35:18.586Z,11.53
2018-11-06T16:37:48.058Z,10.00
2018-11-06T16:40:17.699Z,8.47
2018-11-06T16:42:47.508Z,9.63
2018-11-06T16:45:18.561Z,11.47
2018-11-06T16:47:48.797Z,13.10
2018-11-06T16:50:18.594Z,8.97
2018-11-06T16:52:47.871Z,7.53
2018-11-06T16:55:17.986Z,15.73
2018-11-06T16:57:47.402Z,9.20
2018-11-06T17:00:18.449Z,9.70
2018-11-06T17:02:47.551Z,10.23
2018-11-06T17:05:16.852Z,10.83
2018-11-06T17:07:46.358Z,10.17
2018-11-06T17:10:16.387Z,11.47
2018-11-06T17:12:45.659Z,10.82
2018-11-06T17:15:16.729Z,11.20
2018-11-06T17:17:46.846Z,10.47
2018-11-06T17:20:16.461Z,14.30
2018-11-06T17:22:45.737Z,12.75
2018-11-06T17:25:16.455Z,9.50
2018-11-06T17:27:45.702Z,12.55
2018-11-06T17:30:16.251Z,11.70
2018-11-06T17:32:45.632Z,9.63
2018-11-06T17:35:16.048Z,10.33
2018-11-06T17:37:45.547Z,9.95
2018-11-06T17:40:16.139Z,9.67
2018-11-06T17:42:45.438Z,9.10
2018-11-06T17:45:16.141Z,9.23
2018-11-06T17:47:45.387Z,10.68
2018-11-06T17:50:15.650Z,8.35
2018-11-06T17:52:45.012Z,8.43
2018-11-06T17:55:15.881Z,8.50
2018-11-06T17:57:45.130Z,7.75
2018-11-06T18:00:18.176Z,12.47
2018-11-06T18:02:47.921Z,10.80
2018-11-06T18:05:18.409Z,14.93
2018-11-06T18:07:47.711Z,13.03
2018-11-06T18:10:18.380Z,8.47
2018-11-06T18:12:47.651Z,14.07
2018-11-06T18:15:16.921Z,8.73
2018-11-06T18:17:46.344Z,12.43
2018-11-06T18:20:15.898Z,8.43
2018-11-06T18:22:45.695Z,10.80
2018-11-06T18:25:15.270Z,9.27
2018-11-06T18:27:44.470Z,10.50
2018-11-06T18:30:15.715Z,8.50
2018-11-06T18:32:44.966Z,7.30
2018-11-06T18:35:15.191Z,6.37
2018-11-06T18:37:44.454Z,7.67
2018-11-06T18:40:16.747Z,7.90
2018-11-06T18:42:46.972Z,7.17
2018-11-06T18:45:16.604Z,7.53
2018-11-06T18:47:45.931Z,8.23
2018-11-06T18:50:16.398Z,6.62
2018-11-06T18:52:46.813Z,7.00
2018-11-06T18:55:16.333Z,5.30
2018-11-06T18:57:45.751Z,6.83
2018-11-06T19:00:20.802Z,5.90
2018-11-06T19:02:51.388Z,7.20
2018-11-06T19:05:21.723Z,6.50
2018-11-06T19:07:51.211Z,9.63
2018-11-06T19:10:20.499Z,7.20
2018-11-06T19:12:49.763Z,5.57
2018-11-06T19:15:21.194Z,6.25
2018-11-06T19:17:51.012Z,6.33
2018-11-06T19:20:20.259Z,6.33
2018-11-06T19:22:49.552Z,6.80
2018-11-06T19:25:18.843Z,7.47
2018-11-06T19:27:48.099Z,6.43
2018-11-06T19:30:18.825Z,5.87
2018-11-06T19:32:48.333Z,7.33
2018-11-06T19:35:17.605Z,6.57
2018-11-06T19:37:46.872Z,6.00
2018-11-06T19:40:17.213Z,5.97
2018-11-06T19:42:47.400Z,5.57
2018-11-06T19:45:16.697Z,8.90
2018-11-06T19:47:46.005Z,7.00
2018-11-06T19:50:16.835Z,6.17
2018-11-06T19:52:46.208Z,6.90
2018-11-06T19:55:16.773Z,6.00
2018-11-06T19:57:46.081Z,5.70
2018-11-06T20:00:22.695Z,5.70
2018-11-06T20:02:53.250Z,7.45
2018-11-06T20:05:22.793Z,5.78
2018-11-06T20:07:52.730Z,5.57
2018-11-06T20:10:23.566Z,6.08
2018-11-06T20:12:53.873Z,6.70
2018-11-06T20:15:23.189Z,5.90
2018-11-06T20:17:52.553Z,6.53
2018-11-06T20:20:24.144Z,6.20
2018-11-06T20:22:53.469Z,5.23
2018-11-06T20:25:22.812Z,6.67
2018-11-06T20:27:52.203Z,6.23
2018-11-06T20:30:22.862Z,5.97
2018-11-06T20:32:52.187Z,6.72
2018-11-06T20:35:21.566Z,6.53
2018-11-06T20:37:50.945Z,6.03
2018-11-06T20:40:21.750Z,7.05
2018-11-06T20:42:51.967Z,6.42
2018-11-06T20:45:21.681Z,6.20
2018-11-06T20:47:51.086Z,8.50
2018-11-06T20:50:21.902Z,9.48
2018-11-06T20:52:51.261Z,7.42
2018-11-06T20:55:20.687Z,6.95
2018-11-06T20:57:49.983Z,7.83
2018-11-06T21:00:22.419Z,6.97
2018-11-06T21:02:53.451Z,10.25
2018-11-06T21:05:22.803Z,9.10
2018-11-06T21:07:52.176Z,7.85
2018-11-06T21:10:26.939Z,7.95
2018-11-06T21:12:56.273Z,7.15
2018-11-06T21:15:25.538Z,5.67
2018-11-06T21:17:54.931Z,8.90
2018-11-06T21:20:24.204Z,5.80
2018-11-06T21:22:53.343Z,10.13
2018-11-06T21:25:22.693Z,5.87
2018-11-06T21:27:51.897Z,6.70
2018-11-06T21:30:21.774Z,6.70
2018-11-06T21:32:52.187Z,7.55
2018-11-06T21:35:21.465Z,7.45
2018-11-06T21:37:50.751Z,7.08
2018-11-06T21:40:21.067Z,6.37
2018-11-06T21:42:50.885Z,5.80
2018-11-06T21:45:20.220Z,6.97
2018-11-06T21:47:50.311Z,6.97
2018-11-06T21:50:19.850Z,8.97
2018-11-06T21:52:49.094Z,8.90
2018-11-06T21:55:19.230Z,6.20
2018-11-06T21:57:48.506Z,6.37
2018-11-06T22:00:19.856Z,6.78
2018-11-06T22:02:49.175Z,10.35
2018-11-06T22:05:19.726Z,25.35
2018-11-06T22:07:49.204Z,13.83
2018-11-06T22:10:19.764Z,15.38
2018-11-06T22:12:49.062Z,40.17
2018-11-06T22:15:19.176Z,12.15
2018-11-06T22:17:48.455Z,9.75
2018-11-06T22:20:18.894Z,7.58
2018-11-06T22:22:48.626Z,7.92
2018-11-06T22:25:17.893Z,5.33
2018-11-06T22:27:47.147Z,5.47
2018-11-06T22:30:17.070Z,8.63
2018-11-06T22:32:46.765Z,5.60
2018-11-06T22:35:17.093Z,8.25
2018-11-06T22:37:46.340Z,8.35
2018-11-06T22:40:16.630Z,9.53
2018-11-06T22:42:45.965Z,10.77
2018-11-06T22:45:16.331Z,11.83
2018-11-06T22:47:45.563Z,5.65
2018-11-06T22:50:16.039Z,5.30
2018-11-06T22:52:46.171Z,5.70
2018-11-06T22:55:15.518Z,5.35
2018-11-06T22:57:44.982Z,6.40
2018-11-06T23:00:17.796Z,6.00
2018-11-06T23:02:47.060Z,5.03
2018-11-06T23:05:16.311Z,4.83
2018-11-06T23:07:50.890Z,4.37
2018-11-06T23:10:20.159Z,4.92
2018-11-06T23:12:49.406Z,5.60
2018-11-06T23:15:18.745Z,5.47
2018-11-06T23:17:48.122Z,7.45
2018-11-06T23:20:17.391Z,4.15
2018-11-06T23:22:46.670Z,4.45
2018-11-06T23:25:15.915Z,6.17
2018-11-06T23:27:45.135Z,5.25
2018-11-06T23:30:15.141Z,5.53
2018-11-06T23:32:44.471Z,4.58
2018-11-06T23:35:13.711Z,4.37
2018-11-06T23:37:42.960Z,3.93
2018-11-06T23:40:12.221Z,4.15
2018-11-06T23:42:41.998Z,4.45
2018-11-06T23:45:11.254Z,4.13
2018-11-06T23:47:40.486Z,4.72
2018-11-06T23:50:10.425Z,3.90
2018-11-06T23:52:40.124Z,3.58
2018-11-06T23:55:09.777Z,4.22
2018-11-06T23:57:39.139Z,4.42
